sensor_id;sensor_type;location;lat;lon;timestamp;pressure;altitude;pressure_sealevel;temperature;humidity
49461;BME280;35355;49.198;-0.368;2023-09-08T00:02:27;100998.59;;;22.29;71.69
49461;BME280;35355;49.198;-0.368;2023-09-08T00:04:53;101003.69;;;22.27;71.82
49461;BME280;35355;49.198;-0.368;2023-09-08T00:07:19;101000.56;;;22.29;72.10
49461;BME280;35355;49.198;-0.368;2023-09-08T00:09:45;100997.66;;;22.25;72.13
49461;BME280;35355;49.198;-0.368;2023-09-08T00:12:11;100998.47;;;22.25;72.34
49461;BME280;35355;49.198;-0.368;2023-09-08T00:14:36;101011.56;;;22.25;72.81
49461;BME280;35355;49.198;-0.368;2023-09-08T00:17:01;100997.03;;;22.19;71.98
49461;BME280;35355;49.198;-0.368;2023-09-08T00:19:27;100999.94;;;22.23;72.51
49461;BME280;35355;49.198;-0.368;2023-09-08T00:21:52;101000.78;;;22.23;72.57
49461;BME280;35355;49.198;-0.368;2023-09-08T00:24:18;100994.03;;;22.24;72.89
49461;BME280;35355;49.198;-0.368;2023-09-08T00:26:44;100992.91;;;22.25;72.89
49461;BME280;35355;49.198;-0.368;2023-09-08T00:29:09;100996.16;;;22.28;73.26
49461;BME280;35355;49.198;-0.368;2023-09-08T00:31:35;100998.78;;;22.33;73.02
49461;BME280;35355;49.198;-0.368;2023-09-08T00:34:00;100989.91;;;22.31;73.11
49461;BME280;35355;49.198;-0.368;2023-09-08T00:36:26;100989.91;;;22.31;72.81
49461;BME280;35355;49.198;-0.368;2023-09-08T00:38:52;101003.56;;;22.32;73.22
49461;BME280;35355;49.198;-0.368;2023-09-08T00:41:20;100991.59;;;22.32;73.10
49461;BME280;35355;49.198;-0.368;2023-09-08T00:43:46;100986.03;;;22.32;73.26
49461;BME280;35355;49.198;-0.368;2023-09-08T00:46:12;100999.75;;;22.37;73.13
49461;BME280;35355;49.198;-0.368;2023-09-08T00:48:38;100996.47;;;22.35;73.22
49461;BME280;35355;49.198;-0.368;2023-09-08T00:51:06;100994.66;;;22.39;73.44
49461;BME280;35355;49.198;-0.368;2023-09-08T00:53:33;100988.91;;;22.44;73.11
49461;BME280;35355;49.198;-0.368;2023-09-08T00:55:59;100998.19;;;22.48;72.89
49461;BME280;35355;49.198;-0.368;2023-09-08T00:58:25;100997.06;;;22.49;72.53
49461;BME280;35355;49.198;-0.368;2023-09-08T01:00:51;101003.09;;;22.51;72.90
49461;BME280;35355;49.198;-0.368;2023-09-08T01:03:16;100994.28;;;22.49;72.61
49461;BME280;35355;49.198;-0.368;2023-09-08T01:05:42;100998.03;;;22.53;72.81
49461;BME280;35355;49.198;-0.368;2023-09-08T01:08:08;101004.38;;;22.54;72.53
49461;BME280;35355;49.198;-0.368;2023-09-08T01:10:34;100998.34;;;22.52;72.74
49461;BME280;35355;49.198;-0.368;2023-09-08T01:13:02;101005.22;;;22.54;72.97
49461;BME280;35355;49.198;-0.368;2023-09-08T01:15:28;101007.50;;;22.52;72.93
49461;BME280;35355;49.198;-0.368;2023-09-08T01:17:53;101014.72;;;22.53;72.88
49461;BME280;35355;49.198;-0.368;2023-09-08T01:20:27;101016.19;;;22.51;72.82
49461;BME280;35355;49.198;-0.368;2023-09-08T01:23:18;101009.81;;;22.50;72.38
49461;BME280;35355;49.198;-0.368;2023-09-08T01:25:52;101002.63;;;22.49;72.39
49461;BME280;35355;49.198;-0.368;2023-09-08T01:28:19;101006.53;;;22.48;72.65
49461;BME280;35355;49.198;-0.368;2023-09-08T01:30:48;100998.53;;;22.47;72.72
49461;BME280;35355;49.198;-0.368;2023-09-08T01:33:15;101007.22;;;22.45;72.77
49461;BME280;35355;49.198;-0.368;2023-09-08T01:35:41;101002.31;;;22.42;72.51
49461;BME280;35355;49.198;-0.368;2023-09-08T01:38:07;100999.88;;;22.40;72.60
49461;BME280;35355;49.198;-0.368;2023-09-08T01:40:32;100998.13;;;22.36;72.95
49461;BME280;35355;49.198;-0.368;2023-09-08T01:42:58;101000.44;;;22.34;72.71
49461;BME280;35355;49.198;-0.368;2023-09-08T01:45:24;101008.44;;;22.35;72.77
49461;BME280;35355;49.198;-0.368;2023-09-08T01:47:49;101015.47;;;22.33;72.65
49461;BME280;35355;49.198;-0.368;2023-09-08T01:50:15;101006.13;;;22.29;72.96
49461;BME280;35355;49.198;-0.368;2023-09-08T01:52:49;101008.91;;;22.29;73.14
49461;BME280;35355;49.198;-0.368;2023-09-08T01:55:15;101001.25;;;22.25;73.08
49461;BME280;35355;49.198;-0.368;2023-09-08T01:57:42;101003.22;;;22.25;73.22
49461;BME280;35355;49.198;-0.368;2023-09-08T02:00:11;100998.00;;;22.23;73.49
49461;BME280;35355;49.198;-0.368;2023-09-08T02:02:37;100998.13;;;22.27;73.52
49461;BME280;35355;49.198;-0.368;2023-09-08T02:05:03;100992.22;;;22.29;73.26
49461;BME280;35355;49.198;-0.368;2023-09-08T02:07:29;100984.09;;;22.23;73.48
49461;BME280;35355;49.198;-0.368;2023-09-08T02:09:55;100996.16;;;22.28;73.41
49461;BME280;35355;49.198;-0.368;2023-09-08T02:12:21;100991.44;;;22.28;73.84
49461;BME280;35355;49.198;-0.368;2023-09-08T02:14:46;100994.53;;;22.27;73.64
49461;BME280;35355;49.198;-0.368;2023-09-08T02:17:12;100988.97;;;22.27;73.52
49461;BME280;35355;49.198;-0.368;2023-09-08T02:19:37;100986.19;;;22.27;73.45
49461;BME280;35355;49.198;-0.368;2023-09-08T02:22:03;100988.66;;;22.28;73.50
49461;BME280;35355;49.198;-0.368;2023-09-08T02:24:28;100984.91;;;22.24;73.42
49461;BME280;35355;49.198;-0.368;2023-09-08T02:26:54;100988.00;;;22.22;73.72
49461;BME280;35355;49.198;-0.368;2023-09-08T02:29:20;100988.81;;;22.23;73.91
49461;BME280;35355;49.198;-0.368;2023-09-08T02:31:47;100986.38;;;22.21;73.35
49461;BME280;35355;49.198;-0.368;2023-09-08T02:34:15;100983.94;;;22.20;73.30
49461;BME280;35355;49.198;-0.368;2023-09-08T02:36:43;100988.88;;;22.14;73.27
49461;BME280;35355;49.198;-0.368;2023-09-08T02:39:09;100990.03;;;22.13;73.54
49461;BME280;35355;49.198;-0.368;2023-09-08T02:41:38;100994.13;;;22.07;73.25
49461;BME280;35355;49.198;-0.368;2023-09-08T02:44:05;100996.91;;;22.07;74.12
49461;BME280;35355;49.198;-0.368;2023-09-08T02:46:30;100990.22;;;22.08;74.09
49461;BME280;35355;49.198;-0.368;2023-09-08T02:48:56;100999.69;;;22.07;73.92
49461;BME280;35355;49.198;-0.368;2023-09-08T02:51:21;100993.66;;;22.05;73.70
49461;BME280;35355;49.198;-0.368;2023-09-08T02:53:47;100992.69;;;22.01;73.98
49461;BME280;35355;49.198;-0.368;2023-09-08T02:56:13;100992.22;;;21.99;74.15
49461;BME280;35355;49.198;-0.368;2023-09-08T02:58:38;100999.09;;;22.01;74.19
49461;BME280;35355;49.198;-0.368;2023-09-08T03:01:14;100996.47;;;21.96;73.91
49461;BME280;35355;49.198;-0.368;2023-09-08T03:03:41;100991.72;;;21.97;74.13
49461;BME280;35355;49.198;-0.368;2023-09-08T03:06:08;100989.28;;;21.95;74.39
49461;BME280;35355;49.198;-0.368;2023-09-08T03:08:33;100995.66;;;21.96;74.74
49461;BME280;35355;49.198;-0.368;2023-09-08T03:10:59;100994.81;;;21.95;74.87
49461;BME280;35355;49.198;-0.368;2023-09-08T03:13:25;100993.03;;;21.99;75.05
49461;BME280;35355;49.198;-0.368;2023-09-08T03:15:52;100997.56;;;22.04;74.60
49461;BME280;35355;49.198;-0.368;2023-09-08T03:18:20;100989.25;;;22.04;74.87
49461;BME280;35355;49.198;-0.368;2023-09-08T03:20:49;100986.47;;;22.04;74.54
49461;BME280;35355;49.198;-0.368;2023-09-08T03:23:15;100985.66;;;22.03;74.50
49461;BME280;35355;49.198;-0.368;2023-09-08T03:25:41;100990.41;;;22.03;75.19
49461;BME280;35355;49.198;-0.368;2023-09-08T03:28:06;100994.31;;;22.02;75.30
49461;BME280;35355;49.198;-0.368;2023-09-08T03:30:31;100999.88;;;22.02;75.15
49461;BME280;35355;49.198;-0.368;2023-09-08T03:32:57;100995.97;;;22.03;75.25
49461;BME280;35355;49.198;-0.368;2023-09-08T03:35:22;100993.66;;;22.05;75.10
49461;BME280;35355;49.198;-0.368;2023-09-08T03:37:50;100990.88;;;22.05;74.78
49461;BME280;35355;49.198;-0.368;2023-09-08T03:40:15;100991.34;;;22.07;75.39
49461;BME280;35355;49.198;-0.368;2023-09-08T03:42:41;100983.00;;;22.07;75.45
49461;BME280;35355;49.198;-0.368;2023-09-08T03:45:10;100983.69;;;22.04;75.21
49461;BME280;35355;49.198;-0.368;2023-09-08T03:47:35;100975.34;;;22.04;75.13
49461;BME280;35355;49.198;-0.368;2023-09-08T03:50:01;100978.13;;;22.04;75.12
49461;BME280;35355;49.198;-0.368;2023-09-08T03:52:26;100974.53;;;22.03;75.30
49461;BME280;35355;49.198;-0.368;2023-09-08T03:54:52;100979.63;;;22.01;75.42
49461;BME280;35355;49.198;-0.368;2023-09-08T03:57:18;100968.84;;;22.00;75.55
49461;BME280;35355;49.198;-0.368;2023-09-08T03:59:43;100972.91;;;22.02;75.74
49461;BME280;35355;49.198;-0.368;2023-09-08T04:02:09;100969.31;;;22.02;75.71
49461;BME280;35355;49.198;-0.368;2023-09-08T04:04:35;100973.72;;;22.03;75.22
49461;BME280;35355;49.198;-0.368;2023-09-08T04:07:01;100976.19;;;22.04;75.55
49461;BME280;35355;49.198;-0.368;2023-09-08T04:09:26;100979.28;;;22.03;75.26
49461;BME280;35355;49.198;-0.368;2023-09-08T04:11:53;100976.00;;;22.01;75.49
49461;BME280;35355;49.198;-0.368;2023-09-08T04:14:19;100976.00;;;22.01;75.51
49461;BME280;35355;49.198;-0.368;2023-09-08T04:16:44;100974.88;;;22.02;75.51
49461;BME280;35355;49.198;-0.368;2023-09-08T04:19:10;100976.19;;;22.04;75.48
49461;BME280;35355;49.198;-0.368;2023-09-08T04:21:35;100977.78;;;22.05;75.41
49461;BME280;35355;49.198;-0.368;2023-09-08T04:24:04;100975.50;;;22.07;75.35
49461;BME280;35355;49.198;-0.368;2023-09-08T04:26:30;100973.53;;;22.08;75.50
49461;BME280;35355;49.198;-0.368;2023-09-08T04:28:56;100980.22;;;22.07;75.54
49461;BME280;35355;49.198;-0.368;2023-09-08T04:31:21;100981.41;;;22.06;75.86
49461;BME280;35355;49.198;-0.368;2023-09-08T04:33:47;100984.19;;;22.06;75.65
49461;BME280;35355;49.198;-0.368;2023-09-08T04:36:12;100974.66;;;22.07;75.90
49461;BME280;35355;49.198;-0.368;2023-09-08T04:38:38;100977.09;;;22.08;75.67
49461;BME280;35355;49.198;-0.368;2023-09-08T04:41:03;100980.22;;;22.07;75.64
49461;BME280;35355;49.198;-0.368;2023-09-08T04:43:29;100976.97;;;22.05;75.39
49461;BME280;35355;49.198;-0.368;2023-09-08T04:45:57;100981.22;;;22.02;75.54
49461;BME280;35355;49.198;-0.368;2023-09-08T04:48:23;100981.56;;;22.01;75.68
49461;BME280;35355;49.198;-0.368;2023-09-08T04:50:48;100979.47;;;21.98;75.46
49461;BME280;35355;49.198;-0.368;2023-09-08T04:53:13;100984.56;;;21.96;75.33
49461;BME280;35355;49.198;-0.368;2023-09-08T04:55:39;100981.94;;;21.90;75.65
49461;BME280;35355;49.198;-0.368;2023-09-08T04:58:05;100984.25;;;21.88;75.51
49461;BME280;35355;49.198;-0.368;2023-09-08T05:00:30;100988.84;;;21.84;75.29
49461;BME280;35355;49.198;-0.368;2023-09-08T05:02:56;100983.47;;;21.79;75.75
49461;BME280;35355;49.198;-0.368;2023-09-08T05:05:21;100984.75;;;21.82;76.07
49461;BME280;35355;49.198;-0.368;2023-09-08T05:07:47;100979.19;;;21.82;76.07
49461;BME280;35355;49.198;-0.368;2023-09-08T05:10:13;100992.25;;;21.90;75.67
49461;BME280;35355;49.198;-0.368;2023-09-08T05:12:38;100981.81;;;21.87;76.00
49461;BME280;35355;49.198;-0.368;2023-09-08T05:15:04;100996.81;;;21.95;75.86
49461;BME280;35355;49.198;-0.368;2023-09-08T05:17:35;100995.31;;;21.97;75.50
49461;BME280;35355;49.198;-0.368;2023-09-08T05:20:01;100992.88;;;21.96;75.32
49461;BME280;35355;49.198;-0.368;2023-09-08T05:22:27;100995.50;;;21.92;75.53
49461;BME280;35355;49.198;-0.368;2023-09-08T05:24:52;100989.31;;;21.86;75.51
49461;BME280;35355;49.198;-0.368;2023-09-08T05:27:18;100995.19;;;21.85;75.33
49461;BME280;35355;49.198;-0.368;2023-09-08T05:29:43;100987.84;;;21.80;75.44
49461;BME280;35355;49.198;-0.368;2023-09-08T05:32:09;100990.63;;;21.80;75.81
49461;BME280;35355;49.198;-0.368;2023-09-08T05:34:34;100985.75;;;21.77;75.61
49461;BME280;35355;49.198;-0.368;2023-09-08T05:37:00;100989.69;;;21.76;75.61
49461;BME280;35355;49.198;-0.368;2023-09-08T05:39:25;101000.31;;;21.74;75.94
49461;BME280;35355;49.198;-0.368;2023-09-08T05:41:51;100996.22;;;21.71;75.84
49461;BME280;35355;49.198;-0.368;2023-09-08T05:44:16;101004.88;;;21.70;75.72
49461;BME280;35355;49.198;-0.368;2023-09-08T05:46:41;101008.31;;;21.67;75.81
49461;BME280;35355;49.198;-0.368;2023-09-08T05:49:07;101005.06;;;21.65;76.03
49461;BME280;35355;49.198;-0.368;2023-09-08T05:51:32;101002.97;;;21.62;75.71
49461;BME280;35355;49.198;-0.368;2023-09-08T05:53:58;101004.09;;;21.61;76.02
49461;BME280;35355;49.198;-0.368;2023-09-08T05:56:30;101007.53;;;21.58;75.56
49461;BME280;35355;49.198;-0.368;2023-09-08T05:58:58;101006.56;;;21.53;75.95
49461;BME280;35355;49.198;-0.368;2023-09-08T06:01:24;101015.41;;;21.55;76.33
49461;BME280;35355;49.198;-0.368;2023-09-08T06:03:49;101007.41;;;21.54;76.51
49461;BME280;35355;49.198;-0.368;2023-09-08T06:06:18;101021.59;;;21.52;76.35
49461;BME280;35355;49.198;-0.368;2023-09-08T06:08:44;100990.06;;;21.40;76.31
49461;BME280;35355;49.198;-0.368;2023-09-08T06:11:09;101014.91;;;21.53;76.51
49461;BME280;35355;49.198;-0.368;2023-09-08T06:13:35;101019.97;;;21.51;76.37
49461;BME280;35355;49.198;-0.368;2023-09-08T06:16:00;101021.59;;;21.52;76.49
49461;BME280;35355;49.198;-0.368;2023-09-08T06:18:29;101011.66;;;21.51;76.79
49461;BME280;35355;49.198;-0.368;2023-09-08T06:20:57;101013.91;;;21.58;76.80
49461;BME280;35355;49.198;-0.368;2023-09-08T06:23:26;101007.22;;;21.59;77.29
49461;BME280;35355;49.198;-0.368;2023-09-08T06:25:56;101014.53;;;21.64;76.93
49461;BME280;35355;49.198;-0.368;2023-09-08T06:28:24;101025.50;;;21.69;77.09
49461;BME280;35355;49.198;-0.368;2023-09-08T06:30:49;101029.41;;;21.77;77.18
49461;BME280;35355;49.198;-0.368;2023-09-08T06:33:15;101028.41;;;21.81;77.63
49461;BME280;35355;49.198;-0.368;2023-09-08T06:35:40;101024.63;;;21.86;77.54
49461;BME280;35355;49.198;-0.368;2023-09-08T06:38:06;101030.00;;;21.91;77.61
49461;BME280;35355;49.198;-0.368;2023-09-08T06:40:34;101006.47;;;21.88;77.63
49461;BME280;35355;49.198;-0.368;2023-09-08T06:43:00;101024.22;;;22.05;77.94
49461;BME280;35355;49.198;-0.368;2023-09-08T06:45:25;101036.13;;;22.14;77.64
49461;BME280;35355;49.198;-0.368;2023-09-08T06:47:51;101034.81;;;22.20;77.27
49461;BME280;35355;49.198;-0.368;2023-09-08T06:50:23;101034.94;;;22.33;77.00
49461;BME280;35355;49.198;-0.368;2023-09-08T06:52:49;101035.72;;;22.42;76.58
49461;BME280;35355;49.198;-0.368;2023-09-08T06:55:15;101040.09;;;22.52;76.49
49461;BME280;35355;49.198;-0.368;2023-09-08T06:57:42;101041.47;;;22.67;76.48
49461;BME280;35355;49.198;-0.368;2023-09-08T07:00:08;101041.06;;;22.77;76.42
49461;BME280;35355;49.198;-0.368;2023-09-08T07:02:34;101038.56;;;22.84;75.89
49461;BME280;35355;49.198;-0.368;2023-09-08T07:05:00;101038.34;;;22.89;75.72
49461;BME280;35355;49.198;-0.368;2023-09-08T07:07:33;101038.63;;;22.97;75.49
49461;BME280;35355;49.198;-0.368;2023-09-08T07:09:58;101042.22;;;22.97;74.94
49461;BME280;35355;49.198;-0.368;2023-09-08T07:12:23;101044.03;;;23.02;75.08
49461;BME280;35355;49.198;-0.368;2023-09-08T07:14:49;101032.66;;;23.07;74.89
49461;BME280;35355;49.198;-0.368;2023-09-08T07:17:15;101046.53;;;23.16;74.39
49461;BME280;35355;49.198;-0.368;2023-09-08T07:19:40;101037.97;;;23.21;74.07
49461;BME280;35355;49.198;-0.368;2023-09-08T07:22:06;101041.63;;;23.34;73.96
49461;BME280;35355;49.198;-0.368;2023-09-08T07:24:31;101029.13;;;23.40;73.80
49461;BME280;35355;49.198;-0.368;2023-09-08T07:26:57;101031.38;;;23.46;73.40
49461;BME280;35355;49.198;-0.368;2023-09-08T07:29:22;101044.97;;;23.60;73.08
49461;BME280;35355;49.198;-0.368;2023-09-08T07:31:47;101048.50;;;23.70;72.82
49461;BME280;35355;49.198;-0.368;2023-09-08T07:34:13;101047.59;;;23.78;72.36
49461;BME280;35355;49.198;-0.368;2023-09-08T07:36:38;101048.09;;;23.80;71.91
49461;BME280;35355;49.198;-0.368;2023-09-08T07:39:04;101042.03;;;23.78;71.65
49461;BME280;35355;49.198;-0.368;2023-09-08T07:41:30;101040.19;;;23.82;71.14
49461;BME280;35355;49.198;-0.368;2023-09-08T07:43:55;101048.34;;;23.87;71.37
49461;BME280;35355;49.198;-0.368;2023-09-08T07:46:20;101042.28;;;23.85;71.13
49461;BME280;35355;49.198;-0.368;2023-09-08T07:48:46;101050.81;;;23.89;71.21
49461;BME280;35355;49.198;-0.368;2023-09-08T07:51:11;101051.13;;;23.87;71.35
49461;BME280;35355;49.198;-0.368;2023-09-08T07:53:37;101049.97;;;23.88;71.03
49461;BME280;35355;49.198;-0.368;2023-09-08T07:56:03;101055.19;;;23.90;70.93
49461;BME280;35355;49.198;-0.368;2023-09-08T07:58:29;101048.47;;;23.91;71.30
49461;BME280;35355;49.198;-0.368;2023-09-08T08:00:54;101050.31;;;23.87;71.49
49461;BME280;35355;49.198;-0.368;2023-09-08T08:03:20;101053.72;;;23.92;71.47
49461;BME280;35355;49.198;-0.368;2023-09-08T08:05:46;101051.72;;;23.93;71.46
49461;BME280;35355;49.198;-0.368;2023-09-08T08:08:11;101052.56;;;23.93;71.15
49461;BME280;35355;49.198;-0.368;2023-09-08T08:10:37;101046.97;;;23.93;71.11
49461;BME280;35355;49.198;-0.368;2023-09-08T08:13:03;101053.81;;;23.96;71.21
49461;BME280;35355;49.198;-0.368;2023-09-08T08:15:39;101038.69;;;23.85;71.36
49461;BME280;35355;49.198;-0.368;2023-09-08T08:18:06;101049.88;;;23.97;70.98
49461;BME280;35355;49.198;-0.368;2023-09-08T08:20:32;101059.75;;;23.94;70.58
49461;BME280;35355;49.198;-0.368;2023-09-08T08:23:05;101065.91;;;24.00;70.77
49461;BME280;35355;49.198;-0.368;2023-09-08T08:25:31;101063.25;;;24.04;70.27
49461;BME280;35355;49.198;-0.368;2023-09-08T08:27:58;101063.38;;;24.07;70.14
49461;BME280;35355;49.198;-0.368;2023-09-08T08:30:26;101066.88;;;24.16;69.92
49461;BME280;35355;49.198;-0.368;2023-09-08T08:32:52;101063.50;;;24.23;69.96
49461;BME280;35355;49.198;-0.368;2023-09-08T08:35:19;101067.25;;;24.27;70.54
49461;BME280;35355;49.198;-0.368;2023-09-08T08:37:44;101069.44;;;24.34;69.98
49461;BME280;35355;49.198;-0.368;2023-09-08T08:40:11;101065.94;;;24.37;69.55
49461;BME280;35355;49.198;-0.368;2023-09-08T08:42:39;101070.84;;;24.40;69.75
49461;BME280;35355;49.198;-0.368;2023-09-08T08:45:06;101057.94;;;24.35;69.85
49461;BME280;35355;49.198;-0.368;2023-09-08T08:47:31;101065.38;;;24.44;69.86
49461;BME280;35355;49.198;-0.368;2023-09-08T08:49:58;101060.97;;;24.43;69.60
49461;BME280;35355;49.198;-0.368;2023-09-08T08:52:28;101055.03;;;24.44;70.01
49461;BME280;35355;49.198;-0.368;2023-09-08T08:54:54;101068.31;;;24.60;70.07
49461;BME280;35355;49.198;-0.368;2023-09-08T08:57:22;101065.63;;;24.63;70.00
49461;BME280;35355;49.198;-0.368;2023-09-08T08:59:49;101067.94;;;24.74;70.01
49461;BME280;35355;49.198;-0.368;2023-09-08T09:02:17;101072.13;;;24.80;69.67
49461;BME280;35355;49.198;-0.368;2023-09-08T09:04:43;101075.16;;;24.87;69.14
49461;BME280;35355;49.198;-0.368;2023-09-08T09:07:09;101066.78;;;24.87;68.77
49461;BME280;35355;49.198;-0.368;2023-09-08T09:09:35;101074.22;;;24.95;68.79
49461;BME280;35355;49.198;-0.368;2023-09-08T09:12:01;101075.94;;;25.00;68.34
49461;BME280;35355;49.198;-0.368;2023-09-08T09:14:31;101084.63;;;25.11;68.19
49461;BME280;35355;49.198;-0.368;2023-09-08T09:16:58;101086.00;;;25.17;67.55
49461;BME280;35355;49.198;-0.368;2023-09-08T09:19:28;101079.38;;;25.21;67.31
49461;BME280;35355;49.198;-0.368;2023-09-08T09:21:58;101076.47;;;25.30;68.00
49461;BME280;35355;49.198;-0.368;2023-09-08T09:26:56;101067.84;;;25.35;66.89
49461;BME280;35355;49.198;-0.368;2023-09-08T09:29:22;101087.00;;;25.49;66.22
49461;BME280;35355;49.198;-0.368;2023-09-08T09:34:20;101085.31;;;25.61;64.92
49461;BME280;35355;49.198;-0.368;2023-09-08T09:36:50;101084.69;;;25.67;65.09
49461;BME280;35355;49.198;-0.368;2023-09-08T09:39:26;101070.91;;;25.74;65.39
49461;BME280;35355;49.198;-0.368;2023-09-08T09:41:56;101072.53;;;25.76;65.25
49461;BME280;35355;49.198;-0.368;2023-09-08T09:44:23;101070.09;;;25.74;64.55
49461;BME280;35355;49.198;-0.368;2023-09-08T09:46:51;101070.47;;;25.72;64.94
49461;BME280;35355;49.198;-0.368;2023-09-08T09:49:17;101066.03;;;25.71;64.96
49461;BME280;35355;49.198;-0.368;2023-09-08T09:51:48;101074.91;;;25.73;64.73
49461;BME280;35355;49.198;-0.368;2023-09-08T09:54:14;101066.03;;;25.71;64.83
49461;BME280;35355;49.198;-0.368;2023-09-08T09:56:40;101068.41;;;25.69;65.30
49461;BME280;35355;49.198;-0.368;2023-09-08T09:59:08;101062.81;;;25.69;65.13
49461;BME280;35355;49.198;-0.368;2023-09-08T10:01:34;101070.03;;;25.70;64.67
49461;BME280;35355;49.198;-0.368;2023-09-08T10:04:00;101067.47;;;25.65;65.05
49461;BME280;35355;49.198;-0.368;2023-09-08T10:06:31;101062.59;;;25.62;65.12
49461;BME280;35355;49.198;-0.368;2023-09-08T10:08:58;101063.41;;;25.63;64.97
49461;BME280;35355;49.198;-0.368;2023-09-08T10:11:25;101073.44;;;25.64;65.21
49461;BME280;35355;49.198;-0.368;2023-09-08T10:13:58;101062.59;;;25.62;65.28
49461;BME280;35355;49.198;-0.368;2023-09-08T10:16:27;101069.34;;;25.61;64.96
49461;BME280;35355;49.198;-0.368;2023-09-08T10:18:54;101068.28;;;25.66;64.92
49461;BME280;35355;49.198;-0.368;2023-09-08T10:21:25;101068.47;;;25.73;64.96
49461;BME280;35355;49.198;-0.368;2023-09-08T10:23:59;101064.72;;;25.81;65.17
49461;BME280;35355;49.198;-0.368;2023-09-08T10:26:30;101068.06;;;25.87;64.52
49461;BME280;35355;49.198;-0.368;2023-09-08T10:28:58;101056.97;;;25.90;64.18
49461;BME280;35355;49.198;-0.368;2023-09-08T10:31:26;101054.63;;;25.92;64.18
49461;BME280;35355;49.198;-0.368;2023-09-08T10:33:54;101049.03;;;25.92;63.97
49461;BME280;35355;49.198;-0.368;2023-09-08T10:36:20;101056.16;;;25.90;63.36
49461;BME280;35355;49.198;-0.368;2023-09-08T10:38:46;101060.22;;;25.92;63.23
49461;BME280;35355;49.198;-0.368;2023-09-08T10:43:46;101066.34;;;25.98;63.30
49461;BME280;35355;49.198;-0.368;2023-09-08T10:46:21;101063.09;;;25.96;63.55
49461;BME280;35355;49.198;-0.368;2023-09-08T10:48:48;101065.22;;;25.99;62.56
49461;BME280;35355;49.198;-0.368;2023-09-08T10:51:14;101065.22;;;25.99;62.02
49461;BME280;35355;49.198;-0.368;2023-09-08T10:53:40;101065.22;;;25.99;61.84
49461;BME280;35355;49.198;-0.368;2023-09-08T10:56:05;101057.16;;;25.98;61.92
49461;BME280;35355;49.198;-0.368;2023-09-08T10:58:33;101059.38;;;26.04;61.85
49461;BME280;35355;49.198;-0.368;2023-09-08T11:01:00;101058.78;;;25.99;61.79
49461;BME280;35355;49.198;-0.368;2023-09-08T11:03:47;101059.72;;;26.03;62.70
49461;BME280;35355;49.198;-0.368;2023-09-08T11:06:18;101055.66;;;26.00;61.79
49461;BME280;35355;49.198;-0.368;2023-09-08T11:08:45;101066.84;;;26.00;60.96
49461;BME280;35355;49.198;-0.368;2023-09-08T11:11:12;101064.97;;;26.04;60.17
49461;BME280;35355;49.198;-0.368;2023-09-08T11:13:38;101060.25;;;26.08;60.38
49461;BME280;35355;49.198;-0.368;2023-09-08T11:16:05;101060.78;;;26.14;59.86
49461;BME280;35355;49.198;-0.368;2023-09-08T11:18:32;101046.56;;;26.19;59.76
49461;BME280;35355;49.198;-0.368;2023-09-08T11:21:02;101056.19;;;26.22;58.70
49461;BME280;35355;49.198;-0.368;2023-09-08T11:23:28;101053.03;;;26.23;59.25
49461;BME280;35355;49.198;-0.368;2023-09-08T11:25:54;101043.47;;;26.24;58.73
49461;BME280;35355;49.198;-0.368;2023-09-08T11:28:23;101041.13;;;26.26;59.31
49461;BME280;35355;49.198;-0.368;2023-09-08T11:30:49;101049.16;;;26.28;58.65
49461;BME280;35355;49.198;-0.368;2023-09-08T11:33:16;101046.38;;;26.28;58.79
49461;BME280;35355;49.198;-0.368;2023-09-08T11:35:42;101052.34;;;26.26;58.18
49461;BME280;35355;49.198;-0.368;2023-09-08T11:38:11;101046.38;;;26.28;57.70
49461;BME280;35355;49.198;-0.368;2023-09-08T11:40:37;101045.19;;;26.29;57.36
49461;BME280;35355;49.198;-0.368;2023-09-08T11:43:03;101048.16;;;26.36;57.53
49461;BME280;35355;49.198;-0.368;2023-09-08T11:45:30;101043.03;;;26.38;57.50
49461;BME280;35355;49.198;-0.368;2023-09-08T11:47:56;101049.97;;;26.44;57.91
49461;BME280;35355;49.198;-0.368;2023-09-08T11:50:23;101043.63;;;26.48;57.85
49461;BME280;35355;49.198;-0.368;2023-09-08T11:52:50;101047.69;;;26.50;58.42
49461;BME280;35355;49.198;-0.368;2023-09-08T11:55:16;101042.09;;;26.50;58.34
49461;BME280;35355;49.198;-0.368;2023-09-08T11:57:44;101045.63;;;26.47;58.31
49461;BME280;35355;49.198;-0.368;2023-09-08T12:00:11;101038.47;;;26.50;57.72
49461;BME280;35355;49.198;-0.368;2023-09-08T12:02:41;101044.81;;;26.47;58.26
49461;BME280;35355;49.198;-0.368;2023-09-08T12:05:33;101043.91;;;26.42;59.33
49461;BME280;35355;49.198;-0.368;2023-09-08T12:07:58;101038.16;;;26.35;58.38
49461;BME280;35355;49.198;-0.368;2023-09-08T12:10:25;101042.13;;;26.34;58.58
49461;BME280;35355;49.198;-0.368;2023-09-08T12:12:54;101041.28;;;26.34;58.72
49461;BME280;35355;49.198;-0.368;2023-09-08T12:15:37;101035.69;;;26.34;59.63
49461;BME280;35355;49.198;-0.368;2023-09-08T12:18:05;101044.91;;;26.34;58.83
49461;BME280;35355;49.198;-0.368;2023-09-08T12:20:32;101043.03;;;26.38;58.93
49461;BME280;35355;49.198;-0.368;2023-09-08T12:23:00;101036.22;;;26.39;59.04
49461;BME280;35355;49.198;-0.368;2023-09-08T12:25:26;101031.84;;;26.38;58.81
49461;BME280;35355;49.198;-0.368;2023-09-08T12:27:54;101027.75;;;26.36;59.04
49461;BME280;35355;49.198;-0.368;2023-09-08T12:30:21;101031.38;;;26.36;58.88
49461;BME280;35355;49.198;-0.368;2023-09-08T12:32:48;101029.03;;;26.38;59.06
49461;BME280;35355;49.198;-0.368;2023-09-08T12:35:21;101032.25;;;26.40;59.61
49461;BME280;35355;49.198;-0.368;2023-09-08T12:37:54;101035.50;;;26.42;59.44
49461;BME280;35355;49.198;-0.368;2023-09-08T12:40:22;101029.53;;;26.44;59.82
49461;BME280;35355;49.198;-0.368;2023-09-08T12:42:47;101028.75;;;26.43;59.37
49461;BME280;35355;49.198;-0.368;2023-09-08T12:45:13;101025.50;;;26.41;59.45
49461;BME280;35355;49.198;-0.368;2023-09-08T12:47:39;101029.47;;;26.40;59.30